createdAt,value
2023-03-22T00:01:45.854Z,9.20
2023-03-22T00:04:14.081Z,9.22
2023-03-22T00:06:42.270Z,9.20
2023-03-22T00:09:11.027Z,9.22
2023-03-22T00:11:39.521Z,9.23
2023-03-22T00:14:09.824Z,9.24
2023-03-22T00:16:40.631Z,9.24
2023-03-22T00:19:11.689Z,9.27
2023-03-22T00:21:39.793Z,9.23
2023-03-22T00:24:08.913Z,9.20
2023-03-22T00:26:38.450Z,9.20
2023-03-22T00:29:06.877Z,9.20
2023-03-22T00:31:36.470Z,9.18
2023-03-22T00:34:04.737Z,9.16
2023-03-22T00:36:33.005Z,9.16
2023-03-22T00:39:02.694Z,9.13
2023-03-22T00:41:31.033Z,9.09
2023-03-22T00:43:59.484Z,9.08
2023-03-22T00:46:29.486Z,9.08
2023-03-22T00:48:59.221Z,9.09
2023-03-22T00:51:27.264Z,9.06
2023-03-22T00:53:55.344Z,9.08
2023-03-22T00:56:25.518Z,9.08
2023-03-22T00:58:53.635Z,9.08
2023-03-22T01:01:21.904Z,9.08
2023-03-22T01:03:51.131Z,9.05
2023-03-22T01:06:20.753Z,9.08
2023-03-22T01:08:50.796Z,9.06
2023-03-22T01:11:19.256Z,9.06
2023-03-22T01:13:48.185Z,9.08
2023-03-22T01:16:16.911Z,9.08
2023-03-22T01:18:45.511Z,9.08
2023-03-22T01:21:14.350Z,9.05
2023-03-22T01:23:44.409Z,9.05
2023-03-22T01:26:12.465Z,9.02
2023-03-22T01:28:41.255Z,9.00
2023-03-22T01:31:12.202Z,8.96
2023-03-22T01:33:41.838Z,8.93
2023-03-22T01:36:14.454Z,8.90
2023-03-22T01:38:43.810Z,8.89
2023-03-22T01:41:12.881Z,8.86
2023-03-22T01:43:41.170Z,8.85
2023-03-22T01:46:10.196Z,8.79
2023-03-22T01:48:42.138Z,8.79
2023-03-22T01:51:14.219Z,8.76
2023-03-22T01:53:46.546Z,8.72
2023-03-22T01:56:15.188Z,8.71
2023-03-22T01:58:43.552Z,8.69
2023-03-22T02:01:17.514Z,8.68
2023-03-22T02:03:51.114Z,8.67
2023-03-22T02:06:19.667Z,8.65
2023-03-22T02:08:49.817Z,8.64
2023-03-22T02:11:19.291Z,8.65
2023-03-22T02:14:05.336Z,8.67
2023-03-22T02:16:40.185Z,8.62
2023-03-22T02:19:33.393Z,8.62
2023-03-22T02:22:14.586Z,8.62
2023-03-22T02:25:25.584Z,8.61
2023-03-22T02:28:16.820Z,8.58
2023-03-22T02:31:02.191Z,8.57
2023-03-22T02:33:47.346Z,8.55
2023-03-22T02:36:31.107Z,8.57
2023-03-22T02:39:19.741Z,8.54
2023-03-22T02:41:56.280Z,8.55
2023-03-22T02:44:28.275Z,8.57
2023-03-22T02:47:02.053Z,8.52
2023-03-22T02:49:37.677Z,8.52
2023-03-22T02:52:13.108Z,8.48
2023-03-22T02:54:46.256Z,8.44
2023-03-22T02:57:21.061Z,8.44
2023-03-22T02:59:51.406Z,8.42
2023-03-22T03:02:20.829Z,8.38
2023-03-22T03:04:51.380Z,8.38
2023-03-22T03:07:23.082Z,8.38
2023-03-22T03:09:53.274Z,8.37
2023-03-22T03:12:23.625Z,8.38
2023-03-22T03:14:52.041Z,8.37
2023-03-22T03:17:37.267Z,8.34
2023-03-22T03:20:15.252Z,8.36
2023-03-22T03:22:51.118Z,8.34
2023-03-22T03:25:26.197Z,8.37
2023-03-22T03:28:00.150Z,8.36
2023-03-22T03:30:33.386Z,8.36
2023-03-22T03:33:04.484Z,8.37
2023-03-22T03:35:38.013Z,8.36
2023-03-22T03:38:09.980Z,8.37
2023-03-22T03:40:42.921Z,8.37
2023-03-22T03:43:25.478Z,8.40
2023-03-22T03:45:55.767Z,8.40
2023-03-22T03:48:26.009Z,8.41
2023-03-22T03:50:55.632Z,8.41
2023-03-22T03:53:23.890Z,8.44
2023-03-22T03:55:54.453Z,8.47
2023-03-22T03:58:25.763Z,8.48
2023-03-22T04:00:56.484Z,8.50
2023-03-22T04:03:24.500Z,8.55
2023-03-22T04:05:52.565Z,8.52
2023-03-22T04:08:20.781Z,8.51
2023-03-22T04:10:52.328Z,8.54
2023-03-22T04:13:24.711Z,8.52
2023-03-22T04:15:58.083Z,8.52
2023-03-22T04:18:29.649Z,8.51
2023-03-22T04:20:58.140Z,8.51
2023-03-22T04:23:26.537Z,8.52
2023-03-22T04:25:54.924Z,8.55
2023-03-22T04:28:26.097Z,8.57
2023-03-22T04:30:57.447Z,8.57
2023-03-22T04:33:27.306Z,8.54
2023-03-22T04:36:02.500Z,8.58
2023-03-22T04:38:31.576Z,8.61
2023-03-22T04:41:00.614Z,8.60
2023-03-22T04:43:34.778Z,8.61
2023-03-22T04:46:03.273Z,8.60
2023-03-22T04:48:31.650Z,8.60
2023-03-22T04:51:04.312Z,8.58
2023-03-22T04:53:32.587Z,8.60
2023-03-22T04:56:02.896Z,8.57
2023-03-22T04:58:34.094Z,8.57
2023-03-22T05:01:04.045Z,8.57
2023-03-22T05:03:33.279Z,8.54
2023-03-22T05:06:04.046Z,8.52
2023-03-22T05:08:39.712Z,8.51
2023-03-22T05:11:09.569Z,8.51
2023-03-22T05:13:39.345Z,8.52
2023-03-22T05:16:08.768Z,8.50
2023-03-22T05:18:38.037Z,8.54
2023-03-22T05:21:08.838Z,8.54
2023-03-22T05:23:37.032Z,8.52
2023-03-22T05:26:05.400Z,8.55
2023-03-22T05:28:34.330Z,8.55
2023-03-22T05:31:11.190Z,8.54
2023-03-22T05:33:39.458Z,8.52
2023-03-22T05:36:11.694Z,8.52
2023-03-22T05:38:43.098Z,8.51
2023-03-22T05:41:16.633Z,8.52
2023-03-22T05:43:44.621Z,8.52
2023-03-22T05:46:14.123Z,8.52
2023-03-22T05:48:42.660Z,8.52
2023-03-22T05:51:13.967Z,8.54
2023-03-22T05:53:41.963Z,8.52
2023-03-22T05:56:11.080Z,8.54
2023-03-22T05:58:42.285Z,8.58
2023-03-22T06:01:12.274Z,8.57
2023-03-22T06:03:47.396Z,8.60
2023-03-22T06:06:16.895Z,8.60
2023-03-22T06:08:45.326Z,8.61
2023-03-22T06:11:13.843Z,8.64
2023-03-22T06:13:44.904Z,8.65
2023-03-22T06:16:14.194Z,8.67
2023-03-22T06:18:43.677Z,9.02
2023-03-22T06:21:11.679Z,9.16
2023-03-22T06:23:39.655Z,9.40
2023-03-22T06:26:11.336Z,9.54
2023-03-22T06:28:39.387Z,9.73
2023-03-22T06:31:08.534Z,9.82
2023-03-22T06:33:37.316Z,9.89
2023-03-22T06:36:07.909Z,9.87
2023-03-22T06:38:37.429Z,9.92
2023-03-22T06:41:06.256Z,9.97
2023-03-22T06:43:34.239Z,9.98
2023-03-22T06:46:02.481Z,9.87
2023-03-22T06:48:30.632Z,9.82
2023-03-22T06:50:59.604Z,9.78
2023-03-22T06:53:29.230Z,9.74
2023-03-22T06:55:57.241Z,9.65
2023-03-22T06:58:25.495Z,9.62
2023-03-22T07:00:53.745Z,9.58
2023-03-22T07:03:22.458Z,9.50
2023-03-22T07:05:50.891Z,9.48
2023-03-22T07:08:19.202Z,9.51
2023-03-22T07:10:52.137Z,9.52
2023-03-22T07:13:20.460Z,9.58
2023-03-22T07:15:50.427Z,9.60
2023-03-22T07:18:18.386Z,9.61
2023-03-22T07:20:46.927Z,9.64
2023-03-22T07:23:15.460Z,9.71
2023-03-22T07:25:44.662Z,9.75
2023-03-22T07:28:15.046Z,9.84
2023-03-22T07:30:43.318Z,9.87
2023-03-22T07:33:12.206Z,9.92
2023-03-22T07:35:40.694Z,9.95
2023-03-22T07:38:10.142Z,9.98
2023-03-22T07:40:39.553Z,10.06
2023-03-22T07:43:07.937Z,10.10
2023-03-22T07:45:37.589Z,10.16
2023-03-22T07:48:06.093Z,10.27
2023-03-22T07:50:34.082Z,10.36
2023-03-22T07:53:04.068Z,10.37
2023-03-22T07:55:34.849Z,10.49
2023-03-22T07:58:03.649Z,10.57
2023-03-22T08:00:31.842Z,10.64
2023-03-22T08:03:02.643Z,10.73
2023-03-22T08:05:32.236Z,10.80
2023-03-22T08:08:00.645Z,10.83
2023-03-22T08:10:29.160Z,10.94
2023-03-22T08:12:57.554Z,11.02
2023-03-22T08:15:26.959Z,11.05
2023-03-22T08:17:58.956Z,11.21
2023-03-22T08:20:31.445Z,11.29
2023-03-22T08:22:59.701Z,11.36
2023-03-22T08:25:28.193Z,11.38
2023-03-22T08:27:57.541Z,11.46
2023-03-22T08:30:26.868Z,11.53
2023-03-22T08:32:57.493Z,11.59
2023-03-22T08:35:29.695Z,11.63
2023-03-22T08:37:59.257Z,11.74
2023-03-22T08:40:27.488Z,11.84
2023-03-22T08:42:55.638Z,11.91
2023-03-22T08:45:26.713Z,12.00
2023-03-22T08:47:54.737Z,12.24
2023-03-22T08:50:23.345Z,12.65
2023-03-22T08:52:51.938Z,12.89
2023-03-22T08:55:24.613Z,13.06
2023-03-22T08:57:58.990Z,13.30
2023-03-22T09:00:33.979Z,13.79
2023-03-22T09:03:07.225Z,14.13
2023-03-22T09:05:35.543Z,14.30
2023-03-22T09:08:06.589Z,14.63
2023-03-22T09:10:39.706Z,15.07
2023-03-22T09:13:08.094Z,15.42
2023-03-22T09:15:36.545Z,15.68
2023-03-22T09:18:05.217Z,15.84
2023-03-22T09:20:34.663Z,15.84
2023-03-22T09:23:02.922Z,15.70
2023-03-22T09:25:30.992Z,15.68
2023-03-22T09:28:00.543Z,15.73
2023-03-22T09:30:28.670Z,15.92
2023-03-22T09:32:57.030Z,15.91
2023-03-22T09:35:26.041Z,15.91
2023-03-22T09:37:56.273Z,16.05
2023-03-22T09:40:27.479Z,16.16
2023-03-22T09:42:57.272Z,16.35
2023-03-22T09:45:38.530Z,16.21
2023-03-22T09:48:09.403Z,16.42
2023-03-22T09:50:41.523Z,16.64
2023-03-22T09:53:13.699Z,16.83
2023-03-22T09:55:45.049Z,16.94
2023-03-22T09:58:21.021Z,16.98
2023-03-22T10:00:57.679Z,17.01
2023-03-22T10:03:38.752Z,17.28
2023-03-22T10:06:10.041Z,17.49
2023-03-22T10:08:46.054Z,17.55
2023-03-22T10:11:23.198Z,17.67
2023-03-22T10:13:58.780Z,17.59
2023-03-22T10:16:33.791Z,17.59
2023-03-22T10:19:06.808Z,17.50
2023-03-22T10:21:36.272Z,17.31
2023-03-22T10:24:09.474Z,16.95
2023-03-22T10:26:39.711Z,16.64
2023-03-22T10:29:13.352Z,16.53
2023-03-22T10:31:44.658Z,16.36
2023-03-22T10:34:18.030Z,16.39
2023-03-22T10:36:50.358Z,16.55
2023-03-22T10:39:21.158Z,16.56
2023-03-22T10:41:49.994Z,16.50
2023-03-22T10:44:19.832Z,16.33
2023-03-22T10:46:51.247Z,16.42
2023-03-22T10:49:27.283Z,16.32
2023-03-22T10:51:59.446Z,16.21
2023-03-22T10:54:28.006Z,16.39
2023-03-22T10:56:56.650Z,16.79
2023-03-22T10:59:47.271Z,17.04
2023-03-22T11:02:21.763Z,16.94
2023-03-22T11:04:52.012Z,16.85
2023-03-22T11:07:35.623Z,16.64
2023-03-22T11:10:22.049Z,16.64
2023-03-22T11:12:53.476Z,16.71
2023-03-22T11:15:28.143Z,16.52
2023-03-22T11:18:02.155Z,16.42
2023-03-22T11:20:31.246Z,16.42
2023-03-22T11:23:02.875Z,16.49
2023-03-22T11:25:32.921Z,16.69
2023-03-22T11:28:09.882Z,16.60
2023-03-22T11:30:39.781Z,16.62
2023-03-22T11:33:19.270Z,16.79
2023-03-22T11:35:50.917Z,17.04
2023-03-22T11:38:30.698Z,17.28
2023-03-22T11:41:02.013Z,17.31
2023-03-22T11:43:34.309Z,17.02
2023-03-22T11:46:02.272Z,16.97
2023-03-22T11:48:33.942Z,16.95
2023-03-22T11:51:09.159Z,16.92
2023-03-22T11:53:41.243Z,17.07
2023-03-22T11:56:12.208Z,17.02
2023-03-22T11:58:59.875Z,17.21
2023-03-22T12:01:39.492Z,17.24
2023-03-22T12:04:12.735Z,17.35
2023-03-22T12:06:42.141Z,17.39
2023-03-22T12:09:19.028Z,17.39
2023-03-22T12:11:52.852Z,17.35
2023-03-22T12:14:25.690Z,17.34
2023-03-22T12:16:56.605Z,17.08
2023-03-22T12:19:39.275Z,16.79
2023-03-22T12:22:12.432Z,16.73
2023-03-22T12:24:42.880Z,16.87
2023-03-22T12:27:17.786Z,17.07
2023-03-22T12:29:48.995Z,16.91
2023-03-22T12:32:19.145Z,16.76
2023-03-22T12:34:52.526Z,16.70
2023-03-22T12:37:23.219Z,16.73
2023-03-22T12:39:53.466Z,16.71
2023-03-22T12:42:25.225Z,16.74
2023-03-22T12:45:05.076Z,16.76
2023-03-22T12:47:38.675Z,16.73
2023-03-22T12:50:12.763Z,16.71
2023-03-22T12:52:45.723Z,16.74
2023-03-22T12:55:22.469Z,16.77
2023-03-22T12:57:54.840Z,16.79
2023-03-22T13:00:29.155Z,16.84
2023-03-22T13:03:02.332Z,16.84
2023-03-22T13:05:34.775Z,16.85
2023-03-22T13:08:05.759Z,16.91
2023-03-22T13:10:52.645Z,16.95
2023-03-22T13:13:47.194Z,16.90
2023-03-22T13:16:22.752Z,16.85
2023-03-22T13:19:02.879Z,16.71
2023-03-22T13:21:36.729Z,16.69
2023-03-22T13:24:23.964Z,16.53
2023-03-22T13:26:53.742Z,16.49
2023-03-22T13:29:24.621Z,16.46
2023-03-22T13:31:58.937Z,16.44
2023-03-22T13:34:38.556Z,16.44
2023-03-22T13:37:11.984Z,16.46
2023-03-22T13:39:40.904Z,16.52
2023-03-22T13:42:19.710Z,16.62
2023-03-22T13:44:53.803Z,16.64
2023-03-22T13:47:38.180Z,16.70
2023-03-22T13:50:18.182Z,16.76
2023-03-22T13:52:58.867Z,16.80
2023-03-22T13:55:43.188Z,16.88
2023-03-22T13:58:12.870Z,16.84
2023-03-22T14:00:48.159Z,16.84
2023-03-22T14:03:24.627Z,16.85
2023-03-22T14:06:06.289Z,16.83
2023-03-22T14:08:37.336Z,16.76
2023-03-22T14:11:15.588Z,16.71
2023-03-22T14:13:47.412Z,16.69
2023-03-22T14:16:19.685Z,16.67
2023-03-22T14:18:55.019Z,16.71
2023-03-22T14:21:26.829Z,16.74
